Impacts METAR Board
IDs:

KIAH - Houston/Bush Intl, TX, US

Updated at: 0100 UTC 31 May 2020
Potential Impact None Slight Moderate High
Time 30/13Z 30/14Z 30/15Z 30/16Z 30/17Z 30/18Z 30/19Z 30/20Z 30/21Z 30/22Z 30/23Z 31/00Z 31/01Z
Temp75 77 79 82 83 86 86 87 86 86 88 86 84
Dewpt65 66 66 67 67 68 67 68 67 67 66 67 67
Altim30.08 30.10 30.09 30.09 30.08 30.06 30.05 30.04 30.01 30.00 29.99 29.99 30.00
VIS10 10 10 10 10 10 10 10 10 10 10 10 10
CIG250 250 250 250 250 250 90 250 250 250 250 250 250
CoverBKNBKNBKNBKNBKNBKNBKNBKNBKNBKNBKNBKNBKN
FltCatVFRVFRVFRVFRVFRVFRVFRVFRVFRVFRVFRVFRVFR
WX--------------------------
WDir1050501003020606050501008060
WSpd7 8 8 7 6 7 6 9 10 8 9 9 7
WGst-- -- -- -- -- -- -- -- -- -- -- -- --
Raw hourly METARs
KIAH 301253Z 01007KT 10SM FEW040 SCT080 BKN250 24/18 A3008 RMK AO2 SLP186 T02390183
KIAH 301353Z 05008KT 10SM SCT050 SCT075 BKN250 25/19 A3010 RMK AO2 SLP191 T02500189
KIAH 301453Z 05008KT 10SM FEW055 FEW075 BKN250 26/19 A3009 RMK AO2 SLP188 T02610189 50005
KIAH 301553Z 10007KT 10SM FEW055 FEW075 BKN250 28/19 A3009 RMK AO2 SLP188 T02780194
KIAH 301653Z 03006KT 10SM FEW034 BKN250 28/19 A3008 RMK AO2 SLP185 T02830194
KIAH 301753Z 02007KT 10SM FEW037 BKN250 30/20 A3006 RMK AO2 SLP180 T03000200 10300 20222 58008
KIAH 301853Z 06006KT 10SM SCT040 SCT070 BKN090 BKN250 30/19 A3005 RMK AO2 SLP176 T03000194
KIAH 301953Z 06009KT 10SM FEW040 SCT090 BKN250 31/20 A3004 RMK AO2 SLP171 T03060200
KIAH 302053Z 05010KT 10SM SCT041 BKN250 30/19 A3001 RMK AO2 SLP163 T03000194 58016
KIAH 302153Z 05008KT 10SM SCT044 SCT100 BKN250 30/19 A3000 RMK AO2 SLP159 T03000194
KIAH 302253Z 10009KT 10SM FEW044 FEW100 BKN250 31/19 A2999 RMK AO2 SLP155 T03110189
KIAH 302353Z 08009KT 10SM FEW043 FEW100 BKN250 30/19 A2999 RMK AO2 SLP156 T03000194 10317 20289 56008
KIAH 310053Z 06007KT 10SM FEW040 FEW100 BKN250 29/19 A3000 RMK AO2 SLP158 TCU DSNT SE T02890194



Page loaded:  01:17 UTC  |   06:17 PM Pacific  |   07:17 PM Mountain  |   08:17 PM Central  |   09:17 PM Eastern

 

ADVISORIES

FORECASTS

FORECASTS

OBSERVATIONS

USER TOOLS

ABOUT US